Time;durP1;ratioP1;P1;durP2;ratioP2;P2;SDS_P1;SDS_P2;PMS_P1;PMS_P2;Temp;Humidity;BMP_temperature;BMP_pressure;BME280_temperature;BME280_humidity;BME280_pressure;Samples;Min_cycle;Max_cycle;Signal;HPM_P1;HPM_P2
2021/01/01 00:01:27;;;;;;;944.03;667.30;;;0.70;99.90;;;;;;5028181;28;20217;-81
2021/01/01 00:03:54;;;;;;;956.90;675.40;;;0.70;99.90;;;;;;5028240;28;20855;-81
2021/01/01 00:06:21;;;;;;;991.87;695.20;;;0.70;99.90;;;;;;5027384;28;20293;-83
2021/01/01 00:08:47;;;;;;;1112.53;759.33;;;0.70;99.90;;;;;;5026794;28;20215;-81
2021/01/01 00:11:14;;;;;;;1118.87;761.03;;;0.70;99.90;;;;;;5015100;28;20210;-83
2021/01/01 00:13:41;;;;;;;1174.03;788.80;;;0.70;99.90;;;;;;5026691;28;20693;-82
2021/01/01 00:16:09;;;;;;;1189.13;792.47;;;0.70;99.90;;;;;;5028231;28;20203;-83
2021/01/01 00:18:35;;;;;;;1195.73;791.07;;;0.70;99.90;;;;;;5028486;28;20202;-82
2021/01/01 00:21:02;;;;;;;1276.00;822.10;;;0.70;99.90;;;;;;5027579;28;20300;-82
2021/01/01 00:23:29;;;;;;;1209.60;796.80;;;0.70;99.90;;;;;;5028104;28;20199;-83
2021/01/01 00:25:55;;;;;;;1159.07;769.93;;;0.70;99.90;;;;;;5028679;28;20234;-82
2021/01/01 00:28:21;;;;;;;1095.67;743.87;;;0.70;99.90;;;;;;5027958;28;20203;-82
2021/01/01 00:30:48;;;;;;;1059.23;728.90;;;0.70;99.90;;;;;;5028126;28;20203;-83
2021/01/01 00:33:14;;;;;;;1095.70;732.10;;;0.70;99.90;;;;;;5027287;28;20213;-83
2021/01/01 00:35:40;;;;;;;975.80;683.20;;;0.70;99.90;;;;;;5027994;28;20209;-83
2021/01/01 00:38:08;;;;;;;910.40;649.77;;;0.70;99.90;;;;;;5027568;28;20198;-82
2021/01/01 00:40:37;;;;;;;911.83;651.10;;;0.70;99.90;;;;;;5027461;28;20233;-82
2021/01/01 00:43:03;;;;;;;883.27;630.30;;;0.70;99.90;;;;;;5027128;28;20209;-83
2021/01/01 00:45:29;;;;;;;888.83;626.57;;;0.60;99.90;;;;;;5028370;28;20210;-82
2021/01/01 00:47:56;;;;;;;820.70;586.83;;;0.60;99.90;;;;;;5026180;28;20206;-81
2021/01/01 00:50:22;;;;;;;810.53;581.60;;;0.60;99.90;;;;;;5025210;28;20194;-81
2021/01/01 00:52:48;;;;;;;844.87;594.80;;;0.60;99.90;;;;;;5031147;28;20214;-81
2021/01/01 00:55:15;;;;;;;967.23;660.73;;;0.60;99.90;;;;;;5018890;28;20265;-81
2021/01/01 00:57:41;;;;;;;888.43;629.33;;;0.60;99.90;;;;;;5025867;28;20203;-82
2021/01/01 01:00:09;;;;;;;1036.47;708.77;;;0.60;99.90;;;;;;5024902;28;20223;-81
2021/01/01 01:02:35;;;;;;;996.63;683.20;;;0.60;99.90;;;;;;5024967;28;20213;-81
2021/01/01 01:05:02;;;;;;;1053.63;706.83;;;0.60;99.90;;;;;;5024810;28;20198;-82
2021/01/01 01:07:28;;;;;;;942.47;650.57;;;0.70;99.90;;;;;;5025088;28;20650;-81
2021/01/01 01:09:54;;;;;;;862.50;616.73;;;0.70;99.90;;;;;;5024839;28;20222;-81
2021/01/01 01:12:22;;;;;;;775.43;553.83;;;0.60;99.90;;;;;;5019240;28;20272;-82
2021/01/01 01:14:48;;;;;;;754.60;531.97;;;0.60;99.90;;;;;;5025418;28;20206;-81
2021/01/01 01:17:14;;;;;;;669.00;471.50;;;0.60;99.90;;;;;;5024628;28;20260;-81
2021/01/01 01:19:41;;;;;;;619.83;431.17;;;0.60;99.90;;;;;;5025363;28;20231;-80
2021/01/01 01:22:08;;;;;;;571.13;386.00;;;0.60;99.90;;;;;;5036737;28;20210;-81
2021/01/01 01:24:34;;;;;;;537.37;361.10;;;0.60;99.90;;;;;;5044087;28;20202;-81
2021/01/01 01:27:00;;;;;;;525.70;351.37;;;0.60;99.90;;;;;;5044151;28;20202;-80
2021/01/01 01:29:27;;;;;;;545.73;354.43;;;0.60;99.90;;;;;;5044635;28;20481;-81
2021/01/01 01:31:53;;;;;;;424.90;260.63;;;0.60;99.90;;;;;;5044648;28;20206;-81
2021/01/01 01:34:20;;;;;;;369.30;219.83;;;0.60;99.90;;;;;;5044886;28;20206;-81
2021/01/01 01:36:46;;;;;;;327.60;189.17;;;0.60;99.90;;;;;;5047074;22;20203;-81
2021/01/01 01:39:12;;;;;;;335.37;192.53;;;0.60;99.90;;;;;;5020804;28;20246;-81
2021/01/01 01:41:38;;;;;;;264.73;151.07;;;0.60;99.90;;;;;;5022331;28;20210;-82
2021/01/01 01:44:05;;;;;;;156.17;93.70;;;0.60;99.90;;;;;;5022164;28;20260;-80
2021/01/01 01:46:39;;;;;;;112.30;64.13;;;0.60;99.90;;;;;;5023026;28;20203;-79
2021/01/01 01:49:06;;;;;;;126.33;74.23;;;0.70;99.90;;;;;;5023050;28;20233;-81
2021/01/01 01:51:35;;;;;;;76.57;43.17;;;0.70;99.90;;;;;;5023257;28;20195;-81
2021/01/01 01:54:02;;;;;;;56.83;35.03;;;0.70;99.90;;;;;;5023393;28;20712;-79
2021/01/01 01:56:29;;;;;;;48.90;29.97;;;0.80;99.90;;;;;;5027585;28;20273;-79
2021/01/01 01:58:56;;;;;;;82.97;46.97;;;0.90;99.90;;;;;;5026629;28;20202;-80
2021/01/01 02:01:22;;;;;;;74.73;44.83;;;0.90;99.90;;;;;;5027740;28;20209;-80
2021/01/01 02:03:50;;;;;;;55.33;34.93;;;0.90;99.90;;;;;;5027011;28;20198;-80
2021/01/01 02:06:16;;;;;;;43.50;27.80;;;0.90;99.90;;;;;;5027156;28;20209;-80
2021/01/01 02:08:43;;;;;;;43.67;26.10;;;0.90;99.90;;;;;;5027292;28;20304;-80
2021/01/01 02:11:11;;;;;;;45.20;26.77;;;0.90;99.90;;;;;;5026866;28;20202;-80
2021/01/01 02:13:38;;;;;;;48.00;29.03;;;0.90;99.90;;;;;;5026560;28;20199;-80
2021/01/01 02:16:06;;;;;;;72.83;44.43;;;0.80;99.90;;;;;;5026883;28;20207;-81
2021/01/01 02:18:34;;;;;;;79.63;46.27;;;0.80;99.90;;;;;;5026652;28;20206;-80
2021/01/01 02:21:01;;;;;;;81.27;47.23;;;0.80;99.90;;;;;;5028903;28;20221;-81
2021/01/01 02:23:29;;;;;;;83.33;49.87;;;0.80;99.90;;;;;;5047351;28;20206;-80
2021/01/01 02:25:55;;;;;;;109.50;65.27;;;0.70;99.90;;;;;;5046386;28;20253;-81
2021/01/01 02:28:22;;;;;;;150.37;89.10;;;0.70;99.90;;;;;;5045093;28;20217;-81
2021/01/01 02:30:48;;;;;;;155.50;92.83;;;0.70;99.90;;;;;;5045099;28;20669;-81
2021/01/01 02:33:15;;;;;;;168.63;96.43;;;0.70;99.90;;;;;;5045870;28;20209;-81
2021/01/01 02:35:41;;;;;;;157.67;89.60;;;0.70;99.90;;;;;;5046304;28;20209;-82
2021/01/01 02:38:08;;;;;;;151.57;90.07;;;0.70;99.90;;;;;;5046435;28;20242;-81
2021/01/01 02:40:35;;;;;;;159.77;93.53;;;0.70;99.90;;;;;;5046849;28;20232;-82
2021/01/01 02:43:01;;;;;;;135.33;79.13;;;0.80;99.90;;;;;;5044931;28;20202;-81
2021/01/01 02:45:28;;;;;;;104.87;57.80;;;0.80;99.90;;;;;;5045205;28;20217;-81
2021/01/01 02:47:54;;;;;;;44.50;25.83;;;0.80;99.90;;;;;;5045075;28;20641;-81
2021/01/01 02:50:20;;;;;;;23.57;15.77;;;0.90;99.90;;;;;;5044932;28;20202;-81
2021/01/01 02:52:46;;;;;;;19.77;12.53;;;1.00;99.90;;;;;;5046041;28;20349;-80
2021/01/01 02:55:13;;;;;;;20.00;13.30;;;1.10;99.90;;;;;;5044746;28;20960;-82
2021/01/01 02:57:40;;;;;;;15.10;9.67;;;1.20;99.90;;;;;;5046274;28;20210;-79
2021/01/01 03:00:08;;;;;;;13.20;7.87;;;1.30;99.90;;;;;;5045798;28;20229;-81
2021/01/01 03:02:34;;;;;;;8.00;5.37;;;1.30;99.90;;;;;;5046523;28;20222;-80
2021/01/01 03:05:01;;;;;;;8.43;6.30;;;1.40;99.90;;;;;;5046063;28;20198;-80
2021/01/01 03:07:27;;;;;;;7.77;5.43;;;1.50;99.90;;;;;;5046648;28;20205;-80
2021/01/01 03:09:53;;;;;;;6.97;4.77;;;1.60;99.90;;;;;;5045878;28;20221;-80
2021/01/01 03:12:19;;;;;;;9.77;4.97;;;1.70;99.90;;;;;;5046079;28;20607;-80
2021/01/01 03:14:46;;;;;;;8.40;5.60;;;1.80;99.90;;;;;;5046328;28;20209;-81
2021/01/01 03:17:13;;;;;;;8.77;4.53;;;1.80;99.90;;;;;;5045159;28;20209;-80
2021/01/01 03:19:39;;;;;;;6.87;3.70;;;1.80;99.90;;;;;;5046408;28;20225;-80
2021/01/01 03:22:06;;;;;;;6.80;4.03;;;1.80;99.90;;;;;;5033439;28;20225;-80
2021/01/01 03:24:32;;;;;;;9.13;3.63;;;1.80;99.90;;;;;;5025793;28;20214;-80
2021/01/01 03:26:58;;;;;;;3.47;2.67;;;1.80;99.90;;;;;;5025680;28;20607;-80
2021/01/01 03:29:24;;;;;;;3.70;2.77;;;1.80;99.90;;;;;;5026131;28;20232;-80
2021/01/01 03:31:52;;;;;;;4.80;2.27;;;1.90;99.90;;;;;;5024957;28;20218;-81
2021/01/01 03:34:18;;;;;;;5.17;2.60;;;2.00;99.90;;;;;;5024887;28;20587;-79
2021/01/01 03:36:44;;;;;;;5.07;2.80;;;2.00;99.90;;;;;;5025307;28;20260;-79
2021/01/01 03:39:10;;;;;;;3.33;2.40;;;2.10;99.90;;;;;;5024744;28;20264;-80
2021/01/01 03:41:36;;;;;;;4.77;2.53;;;2.10;99.90;;;;;;5024459;28;20225;-79
2021/01/01 03:44:03;;;;;;;5.20;1.83;;;2.20;99.90;;;;;;5024009;28;20879;-79
2021/01/01 03:46:29;;;;;;;4.73;1.83;;;2.30;99.90;;;;;;5025457;28;20214;-80
2021/01/01 03:48:57;;;;;;;1.80;1.47;;;2.40;99.90;;;;;;5025143;28;20292;-79
2021/01/01 03:51:23;;;;;;;3.33;1.23;;;2.50;99.90;;;;;;5025080;28;20583;-79
2021/01/01 03:53:49;;;;;;;2.50;1.90;;;2.60;99.90;;;;;;5024899;28;20194;-78
2021/01/01 03:56:15;;;;;;;3.30;1.00;;;2.70;99.90;;;;;;5024952;28;20203;-79
2021/01/01 03:58:42;;;;;;;2.90;1.17;;;2.90;99.90;;;;;;5024785;28;20215;-78
2021/01/01 04:01:08;;;;;;;3.17;1.30;;;3.00;99.90;;;;;;5024760;28;20234;-79
2021/01/01 04:03:34;;;;;;;1.70;1.07;;;3.10;99.90;;;;;;5025413;28;20758;-79
2021/01/01 04:06:01;;;;;;;3.17;1.07;;;3.10;99.90;;;;;;5024160;28;20209;-79
2021/01/01 04:08:27;;;;;;;2.57;1.40;;;3.10;99.90;;;;;;5025032;28;20202;-79
2021/01/01 04:10:54;;;;;;;2.63;1.33;;;3.00;99.90;;;;;;5025209;28;20199;-79
2021/01/01 04:13:20;;;;;;;4.83;1.57;;;3.00;99.90;;;;;;5023741;28;20199;-78
2021/01/01 04:15:46;;;;;;;2.07;1.30;;;2.90;99.90;;;;;;5023221;28;20203;-77
2021/01/01 04:18:12;;;;;;;3.83;1.70;;;2.90;99.90;;;;;;5023776;28;20500;-79
2021/01/01 04:20:38;;;;;;;1.47;1.20;;;2.80;99.90;;;;;;5023832;28;20226;-78
2021/01/01 04:23:05;;;;;;;1.13;1.00;;;2.80;99.90;;;;;;5024098;28;20217;-78
2021/01/01 04:25:32;;;;;;;1.40;1.07;;;2.90;99.90;;;;;;5024200;28;20199;-78
2021/01/01 04:27:58;;;;;;;2.73;1.27;;;2.90;99.90;;;;;;5024168;28;20206;-78
2021/01/01 04:30:25;;;;;;;3.63;1.00;;;2.90;99.90;;;;;;5024427;28;20598;-78
2021/01/01 04:32:51;;;;;;;3.00;1.50;;;2.90;99.90;;;;;;5024599;28;20229;-79
2021/01/01 04:35:17;;;;;;;3.13;1.10;;;2.90;99.90;;;;;;5023205;28;20206;-79
2021/01/01 04:37:44;;;;;;;4.37;1.30;;;3.00;99.90;;;;;;5024128;28;20253;-79
2021/01/01 04:40:12;;;;;;;3.50;1.10;;;3.00;99.90;;;;;;5023843;28;20836;-78
2021/01/01 04:42:39;;;;;;;1.80;1.10;;;3.10;99.90;;;;;;5023555;28;20198;-79
2021/01/01 04:45:06;;;;;;;1.23;0.80;;;3.10;99.90;;;;;;5021888;28;20853;-78
2021/01/01 04:47:33;;;;;;;1.93;1.17;;;3.10;99.90;;;;;;5022316;28;20285;-78
2021/01/01 04:50:00;;;;;;;3.27;1.03;;;3.20;99.90;;;;;;5023912;28;20548;-78
2021/01/01 04:52:31;;;;;;;1.57;0.80;;;3.20;99.90;;;;;;5024678;28;20206;-77
2021/01/01 04:54:59;;;;;;;1.23;0.80;;;3.20;99.90;;;;;;5023820;28;20222;-78
2021/01/01 04:57:26;;;;;;;2.70;0.90;;;3.20;99.90;;;;;;5023840;28;20217;-78
2021/01/01 04:59:52;;;;;;;3.70;1.63;;;3.20;99.90;;;;;;5024156;28;20245;-78
2021/01/01 05:02:20;;;;;;;2.00;1.00;;;3.10;99.90;;;;;;5022939;28;20213;-78
2021/01/01 05:04:47;;;;;;;1.83;0.97;;;3.10;99.90;;;;;;5023850;28;20531;-78
2021/01/01 05:07:17;;;;;;;1.73;0.90;;;3.10;99.90;;;;;;5022914;28;20242;-77
2021/01/01 05:09:43;;;;;;;1.83;1.00;;;3.10;99.90;;;;;;5023421;28;20623;-78
2021/01/01 05:12:11;;;;;;;2.83;1.00;;;3.10;99.90;;;;;;5025177;28;20918;-78
2021/01/01 05:14:38;;;;;;;1.97;1.17;;;3.10;99.90;;;;;;5024583;28;20210;-82
2021/01/01 05:17:06;;;;;;;1.20;1.10;;;3.00;99.90;;;;;;5025580;28;20191;-80
2021/01/01 05:19:36;;;;;;;3.73;1.00;;;3.00;99.90;;;;;;5026448;28;20222;-80
2021/01/01 05:22:07;;;;;;;0.87;0.67;;;3.00;99.90;;;;;;5038020;28;20205;-81
2021/01/01 05:24:38;;;;;;;1.77;0.90;;;3.10;99.90;;;;;;5045139;28;20194;-78
2021/01/01 05:27:14;;;;;;;1.77;1.10;;;3.10;99.90;;;;;;5044973;28;20233;-79
2021/01/01 05:29:44;;;;;;;1.27;0.60;;;3.20;99.90;;;;;;5043735;28;20216;-79
2021/01/01 05:32:11;;;;;;;1.47;0.90;;;3.30;99.90;;;;;;5044598;28;20212;-78
2021/01/01 05:34:44;;;;;;;1.57;0.67;;;3.30;99.90;;;;;;5045658;28;20217;-81
2021/01/01 05:37:11;;;;;;;1.23;0.50;;;3.30;99.90;;;;;;5044752;28;20268;-78
2021/01/01 05:39:37;;;;;;;2.90;1.53;;;3.30;99.90;;;;;;5043336;28;20264;-78
2021/01/01 05:42:04;;;;;;;0.83;0.63;;;3.30;99.90;;;;;;5042542;28;20920;-78
2021/01/01 05:44:32;;;;;;;2.90;0.90;;;3.30;99.90;;;;;;5042359;28;20197;-77
2021/01/01 05:47:09;;;;;;;1.47;0.73;;;3.30;99.90;;;;;;5042832;28;20336;-79
2021/01/01 05:49:37;;;;;;;2.90;0.70;;;3.30;99.90;;;;;;5044626;28;20244;-81
2021/01/01 05:52:08;;;;;;;2.63;1.37;;;3.30;99.90;;;;;;5044349;28;20209;-81
2021/01/01 05:54:36;;;;;;;1.87;0.63;;;3.30;99.90;;;;;;5043604;28;20210;-77
2021/01/01 05:57:04;;;;;;;1.40;0.70;;;3.20;99.90;;;;;;5044761;28;20198;-82
2021/01/01 05:59:35;;;;;;;0.80;0.80;;;3.20;99.90;;;;;;5044973;28;20677;-81
2021/01/01 06:02:04;;;;;;;0.97;0.80;;;3.10;99.90;;;;;;5046126;28;20642;-82
2021/01/01 06:04:30;;;;;;;1.80;0.90;;;3.10;99.90;;;;;;5046556;28;20243;-82
2021/01/01 06:07:00;;;;;;;1.43;0.93;;;3.00;99.90;;;;;;5045869;28;20216;-82
2021/01/01 06:09:28;;;;;;;1.53;1.27;;;3.00;99.90;;;;;;5047440;28;20245;-77
2021/01/01 06:11:59;;;;;;;2.80;1.03;;;2.90;99.90;;;;;;5045411;28;20614;-80
2021/01/01 06:14:41;;;;;;;2.47;1.10;;;2.90;99.90;;;;;;5046337;28;20281;-82
2021/01/01 06:17:21;;;;;;;2.63;1.10;;;2.90;99.90;;;;;;5044557;28;20208;-82
2021/01/01 06:19:50;;;;;;;1.50;0.97;;;2.90;99.90;;;;;;5045516;28;20214;-80
2021/01/01 06:22:18;;;;;;;1.20;1.10;;;2.90;99.90;;;;;;5045686;28;20206;-82
2021/01/01 06:24:47;;;;;;;1.17;1.07;;;2.90;99.90;;;;;;5046800;28;20202;-83
2021/01/01 06:27:14;;;;;;;2.10;1.07;;;2.90;99.90;;;;;;5047126;28;20520;-76
2021/01/01 06:29:43;;;;;;;2.77;1.63;;;2.80;99.90;;;;;;5045940;28;20198;-77
2021/01/01 06:32:11;;;;;;;4.00;1.70;;;2.80;99.90;;;;;;5045722;28;20206;-81
2021/01/01 06:34:38;;;;;;;4.50;1.77;;;3.00;99.90;;;;;;5047111;28;20489;-82
2021/01/01 06:37:04;;;;;;;4.37;2.17;;;3.00;99.90;;;;;;5047862;28;20234;-81
2021/01/01 06:39:39;;;;;;;5.70;2.60;;;3.10;99.90;;;;;;5046711;28;20244;-78
2021/01/01 06:42:05;;;;;;;5.03;2.60;;;3.40;99.90;;;;;;5051772;28;20805;-86
2021/01/01 06:44:34;;;;;;;4.10;2.30;;;3.50;99.90;;;;;;5052844;28;20598;-83
2021/01/01 06:47:00;;;;;;;5.90;2.23;;;3.50;99.90;;;;;;5051606;28;20206;-82
2021/01/01 06:49:31;;;;;;;3.73;2.27;;;3.50;99.90;;;;;;5051931;28;20226;-83
2021/01/01 06:52:14;;;;;;;3.30;2.50;;;3.50;99.90;;;;;;5052585;28;20594;-84
2021/01/01 06:54:57;;;;;;;4.30;2.63;;;3.50;99.90;;;;;;5049752;28;20205;-83
2021/01/01 06:57:25;;;;;;;3.10;1.73;;;3.50;99.90;;;;;;5051423;28;20202;-83
2021/01/01 06:59:52;;;;;;;2.47;1.50;;;3.50;99.90;;;;;;5052406;28;20230;-84
2021/01/01 07:02:26;;;;;;;1.87;1.20;;;3.50;99.90;;;;;;5052030;28;20206;-83
2021/01/01 07:04:53;;;;;;;5.90;1.90;;;3.50;99.90;;;;;;5052713;28;20244;-85
2021/01/01 07:07:40;;;;;;;2.63;1.63;;;3.50;99.90;;;;;;5052989;28;20205;-85
2021/01/01 07:10:08;;;;;;;6.13;2.67;;;3.60;99.90;;;;;;5051960;28;20214;-85
2021/01/01 07:12:34;;;;;;;3.80;2.23;;;3.60;99.90;;;;;;5053211;28;20252;-85
2021/01/01 07:15:00;;;;;;;3.37;2.30;;;3.60;99.90;;;;;;5052694;28;20257;-86
2021/01/01 07:17:27;;;;;;;6.77;2.20;;;3.60;99.90;;;;;;5052426;28;20225;-85
2021/01/01 07:19:53;;;;;;;4.30;2.30;;;3.60;99.90;;;;;;5052249;28;20225;-86
2021/01/01 07:22:19;;;;;;;6.40;3.70;;;3.60;99.90;;;;;;5052178;28;20261;-86
2021/01/01 07:24:46;;;;;;;9.00;4.97;;;3.50;99.90;;;;;;5051580;28;20202;-86
2021/01/01 07:27:13;;;;;;;12.43;7.33;;;3.50;99.90;;;;;;5052594;28;20252;-85
2021/01/01 07:29:39;;;;;;;16.40;10.17;;;3.50;99.90;;;;;;5052571;28;20206;-85
2021/01/01 07:32:07;;;;;;;25.37;16.73;;;3.50;99.90;;;;;;5050941;28;20202;-85
2021/01/01 07:34:34;;;;;;;33.10;21.67;;;3.40;99.90;;;;;;5052605;28;20725;-84
2021/01/01 07:37:01;;;;;;;32.83;21.63;;;3.30;99.90;;;;;;5051601;28;20237;-85
2021/01/01 07:39:29;;;;;;;32.67;23.30;;;3.30;99.90;;;;;;5052151;28;20213;-85
2021/01/01 07:42:07;;;;;;;34.33;24.27;;;3.30;99.90;;;;;;5051649;28;20206;-84
2021/01/01 07:44:33;;;;;;;42.53;27.20;;;3.30;99.90;;;;;;5051496;28;20301;-85
2021/01/01 07:46:59;;;;;;;40.93;28.57;;;3.20;99.90;;;;;;5051677;28;20198;-85
2021/01/01 07:49:32;;;;;;;70.10;43.23;;;3.20;99.90;;;;;;5052570;28;20198;-86
2021/01/01 07:52:03;;;;;;;78.03;46.90;;;3.20;99.90;;;;;;5050902;28;20214;-83
2021/01/01 07:54:29;;;;;;;62.20;39.53;;;3.20;99.90;;;;;;5051787;28;20209;-85
2021/01/01 07:57:06;;;;;;;59.93;39.50;;;3.20;99.90;;;;;;5051095;28;20260;-84
2021/01/01 07:59:34;;;;;;;61.57;39.20;;;3.20;99.90;;;;;;5051331;28;20205;-87
2021/01/01 08:02:00;;;;;;;59.20;38.03;;;3.20;99.90;;;;;;5051423;28;20669;-84
2021/01/01 08:04:29;;;;;;;56.93;36.50;;;3.20;99.90;;;;;;5051675;28;20202;-86
2021/01/01 08:06:55;;;;;;;54.97;32.93;;;3.20;99.90;;;;;;5052268;28;20230;-86
2021/01/01 08:09:22;;;;;;;46.53;30.00;;;3.30;99.90;;;;;;5051799;28;20222;-87
2021/01/01 08:11:48;;;;;;;49.43;32.67;;;3.30;99.90;;;;;;5051834;28;20194;-86
2021/01/01 08:14:20;;;;;;;43.17;28.90;;;3.40;99.90;;;;;;5059855;22;20229;-86
2021/01/01 08:16:46;;;;;;;49.47;30.00;;;3.40;99.90;;;;;;5052211;28;20229;-86
2021/01/01 08:19:22;;;;;;;43.83;27.70;;;3.40;99.90;;;;;;5051355;28;20210;-85
2021/01/01 08:22:04;;;;;;;41.07;25.93;;;3.50;99.90;;;;;;5051695;28;20352;-87
2021/01/01 08:24:35;;;;;;;40.47;25.43;;;3.50;99.90;;;;;;5049968;28;20229;-85
2021/01/01 08:27:02;;;;;;;42.47;24.93;;;3.50;99.90;;;;;;5050062;28;20619;-85
2021/01/01 08:29:30;;;;;;;39.63;24.27;;;3.60;99.90;;;;;;5050268;28;20206;-86
2021/01/01 08:31:58;;;;;;;35.67;22.27;;;3.60;99.90;;;;;;5046374;28;20260;-86
2021/01/01 08:34:25;;;;;;;34.63;22.37;;;3.60;99.90;;;;;;5045616;28;20906;-87
2021/01/01 08:36:52;;;;;;;27.27;18.00;;;3.70;99.90;;;;;;5045075;28;20216;-87
2021/01/01 08:39:18;;;;;;;24.17;16.30;;;3.70;99.90;;;;;;5043910;28;20541;-85
2021/01/01 08:41:46;;;;;;;25.30;14.27;;;3.70;99.90;;;;;;5044041;28;20230;-84
2021/01/01 08:44:13;;;;;;;15.87;8.93;;;3.80;99.90;;;;;;5047898;28;20209;-92
2021/01/01 08:46:41;;;;;;;13.30;7.43;;;3.80;99.90;;;;;;5047815;28;20198;-91
2021/01/01 08:49:18;;;;;;;15.50;9.20;;;3.90;99.90;;;;;;5047218;28;20202;-85
2021/01/01 08:51:45;;;;;;;11.53;8.17;;;3.90;99.90;;;;;;5047384;28;20205;-84
2021/01/01 08:54:22;;;;;;;12.77;7.53;;;4.00;99.90;;;;;;5050299;28;20202;-84
2021/01/01 08:56:56;;;;;;;8.87;6.27;;;4.00;99.90;;;;;;5048404;28;20225;-82
2021/01/01 08:59:22;;;;;;;9.27;5.40;;;4.10;99.90;;;;;;5044488;28;20217;-82
2021/01/01 09:01:51;;;;;;;6.57;5.43;;;4.10;99.90;;;;;;5044657;28;20241;-84
2021/01/01 09:04:19;;;;;;;12.17;6.77;;;4.10;99.90;;;;;;5044762;28;20210;-84
2021/01/01 09:06:56;;;;;;;11.17;8.13;;;4.20;99.90;;;;;;5044758;28;20244;-85
2021/01/01 09:09:30;;;;;;;14.20;7.57;;;4.20;99.90;;;;;;5044009;28;20275;-89
2021/01/01 09:12:13;;;;;;;9.63;6.13;;;4.30;99.90;;;;;;5045453;28;20201;-81
2021/01/01 09:14:47;;;;;;;11.73;6.07;;;4.30;99.90;;;;;;5044837;28;20249;-85
2021/01/01 09:17:15;;;;;;;9.93;5.70;;;4.40;99.90;;;;;;5043998;28;20209;-84
2021/01/01 09:19:41;;;;;;;8.10;5.27;;;4.40;99.90;;;;;;5043407;28;20256;-80
2021/01/01 09:22:12;;;;;;;8.83;5.50;;;4.40;99.90;;;;;;5051657;28;20214;-84
2021/01/01 09:24:38;;;;;;;7.23;5.00;;;4.40;99.90;;;;;;5024744;28;20207;-79
2021/01/01 09:27:05;;;;;;;10.67;7.70;;;4.50;99.90;;;;;;5025447;28;20203;-79
2021/01/01 09:29:32;;;;;;;11.07;7.23;;;4.50;99.90;;;;;;5023862;28;20206;-80
2021/01/01 09:31:58;;;;;;;12.13;7.63;;;4.60;99.90;;;;;;5023886;28;20939;-79
2021/01/01 09:34:25;;;;;;;13.43;7.03;;;4.60;99.90;;;;;;5045032;28;20216;-81
2021/01/01 09:36:52;;;;;;;7.87;4.70;;;4.60;99.90;;;;;;5051971;28;20204;-82
2021/01/01 09:39:18;;;;;;;10.77;5.50;;;4.70;99.90;;;;;;5064024;28;20762;-81
2021/01/01 09:41:48;;;;;;;9.37;5.10;;;4.70;99.90;;;;;;5063829;28;20229;-82
2021/01/01 09:44:15;;;;;;;7.97;4.40;;;4.80;99.90;;;;;;5062316;28;20197;-82
2021/01/01 09:46:42;;;;;;;9.10;4.10;;;4.80;99.90;;;;;;5064628;28;20201;-81
2021/01/01 09:49:08;;;;;;;5.83;3.90;;;4.90;99.90;;;;;;5064836;28;20777;-81
2021/01/01 09:51:36;;;;;;;6.17;3.63;;;4.90;99.90;;;;;;5067355;28;20217;-84
2021/01/01 09:54:02;;;;;;;7.30;3.87;;;5.00;99.90;;;;;;5066720;28;20585;-83
2021/01/01 09:56:35;;;;;;;5.10;3.70;;;5.00;99.90;;;;;;5066836;28;20201;-81
2021/01/01 09:59:01;;;;;;;5.87;3.57;;;5.10;99.90;;;;;;5065181;28;20212;-83
2021/01/01 10:01:29;;;;;;;5.57;3.77;;;5.10;99.90;;;;;;5066682;28;20236;-82
2021/01/01 10:03:55;;;;;;;7.37;4.57;;;5.20;99.90;;;;;;5066454;28;20319;-83
2021/01/01 10:06:21;;;;;;;10.30;4.73;;;5.20;99.90;;;;;;5067110;28;20720;-80
2021/01/01 10:08:49;;;;;;;8.93;4.50;;;5.30;99.90;;;;;;5065768;28;20779;-83
2021/01/01 10:11:16;;;;;;;13.50;5.67;;;5.30;99.90;;;;;;5064238;28;20585;-82
2021/01/01 10:13:42;;;;;;;8.00;5.40;;;5.30;99.90;;;;;;5065712;28;20278;-83
2021/01/01 10:16:10;;;;;;;13.60;6.90;;;5.30;99.90;;;;;;5067111;28;20201;-83
2021/01/01 10:18:36;;;;;;;14.60;7.53;;;5.40;99.90;;;;;;5068211;28;20605;-81
2021/01/01 10:21:03;;;;;;;15.57;9.10;;;5.30;99.90;;;;;;5065990;28;20305;-84
2021/01/01 10:23:29;;;;;;;15.13;8.70;;;5.40;99.90;;;;;;5049685;28;20198;-84
2021/01/01 10:25:57;;;;;;;15.53;8.33;;;5.40;99.90;;;;;;5048193;28;20205;-79
2021/01/01 10:28:24;;;;;;;16.13;10.03;;;5.40;99.90;;;;;;5049051;28;20201;-81
2021/01/01 10:30:50;;;;;;;16.97;10.63;;;5.40;99.90;;;;;;5049291;28;20815;-82
2021/01/01 10:33:16;;;;;;;20.50;12.37;;;5.40;99.90;;;;;;5049064;28;20198;-89
2021/01/01 10:35:43;;;;;;;23.90;13.00;;;5.40;99.90;;;;;;5048292;28;20205;-84
2021/01/01 10:38:09;;;;;;;28.97;15.50;;;5.50;99.90;;;;;;5046313;28;20673;-83
2021/01/01 10:40:35;;;;;;;21.33;13.13;;;5.50;99.90;;;;;;5045408;28;20225;-80
2021/01/01 10:43:02;;;;;;;24.57;15.00;;;5.50;99.90;;;;;;5045756;28;20210;-84
2021/01/01 10:45:29;;;;;;;23.57;14.20;;;5.60;99.90;;;;;;5052427;28;20900;-83
2021/01/01 10:47:55;;;;;;;28.67;19.00;;;5.60;99.90;;;;;;5052590;28;20206;-84
2021/01/01 10:50:21;;;;;;;42.93;25.47;;;5.60;99.90;;;;;;5052185;28;20205;-84
2021/01/01 10:52:48;;;;;;;52.90;30.50;;;5.70;99.90;;;;;;5052427;28;20198;-85
2021/01/01 10:55:14;;;;;;;49.93;31.27;;;5.60;99.90;;;;;;5051566;28;20216;-85
2021/01/01 10:57:40;;;;;;;54.03;31.70;;;5.60;99.90;;;;;;5060642;28;20875;-84
2021/01/01 11:00:09;;;;;;;51.10;32.63;;;5.60;99.90;;;;;;5071525;28;20229;-84
2021/01/01 11:02:36;;;;;;;51.53;31.13;;;5.60;99.90;;;;;;5071848;28;20204;-84
2021/01/01 11:05:02;;;;;;;55.43;33.07;;;5.60;99.90;;;;;;5072182;28;20586;-82
2021/01/01 11:07:30;;;;;;;49.50;31.70;;;5.60;99.90;;;;;;5071571;28;20205;-84
2021/01/01 11:09:57;;;;;;;55.97;35.43;;;5.70;99.90;;;;;;5071516;28;20264;-85
2021/01/01 11:12:23;;;;;;;48.53;31.73;;;5.70;99.90;;;;;;5070888;28;20216;-85
2021/01/01 11:15:19;;;;;;;51.43;30.53;;;5.70;99.90;;;;;;5071650;28;20244;-84
2021/01/01 12:24:18;;;;;;;25.60;16.00;;;5.80;99.90;;;;;;5030009;28;20237;-81
2021/01/01 12:26:44;;;;;;;25.27;15.43;;;5.80;99.90;;;;;;5030117;28;20617;-85
2021/01/01 12:29:12;;;;;;;25.00;16.27;;;5.90;99.90;;;;;;5031493;28;20586;-85
2021/01/01 12:31:40;;;;;;;24.30;15.27;;;5.90;99.90;;;;;;5030212;28;20195;-86
2021/01/01 12:34:07;;;;;;;26.13;15.33;;;5.90;99.90;;;;;;5030266;28;20589;-82
2021/01/01 12:36:33;;;;;;;24.30;15.57;;;5.90;99.90;;;;;;5030367;28;20673;-85
2021/01/01 12:39:00;;;;;;;32.40;18.70;;;5.90;99.90;;;;;;5029814;28;20212;-89
2021/01/01 12:41:27;;;;;;;26.67;15.80;;;5.90;99.90;;;;;;5030094;28;20226;-89
2021/01/01 12:43:53;;;;;;;22.30;13.97;;;6.00;99.90;;;;;;5051613;28;20193;-89
2021/01/01 12:46:21;;;;;;;19.10;12.47;;;6.00;99.90;;;;;;5066232;28;20236;-85
2021/01/01 12:48:48;;;;;;;26.10;15.07;;;6.00;99.90;;;;;;5062323;28;20267;-90
2021/01/01 12:51:14;;;;;;;26.17;14.87;;;6.10;99.90;;;;;;5069121;28;20205;-90
2021/01/01 12:53:40;;;;;;;19.57;11.03;;;6.10;99.90;;;;;;5068060;28;20290;-90
2021/01/01 12:56:08;;;;;;;17.37;10.37;;;6.10;99.90;;;;;;5068957;28;20354;-91
2021/01/01 12:58:34;;;;;;;17.70;10.90;;;6.10;99.90;;;;;;5068914;28;20197;-88
2021/01/01 13:01:00;;;;;;;20.80;11.13;;;6.10;99.90;;;;;;5068589;28;20228;-89
2021/01/01 13:03:26;;;;;;;21.30;12.27;;;6.10;99.90;;;;;;5069545;28;20922;-83
2021/01/01 13:05:53;;;;;;;23.27;13.40;;;6.10;99.90;;;;;;5067763;28;20217;-82
2021/01/01 13:08:19;;;;;;;24.63;13.60;;;6.10;99.90;;;;;;5066430;28;20221;-91
2021/01/01 13:10:45;;;;;;;20.33;12.53;;;6.10;99.90;;;;;;5067379;28;20558;-86
2021/01/01 13:13:12;;;;;;;17.20;10.77;;;6.10;99.90;;;;;;5068181;28;20216;-86
2021/01/01 13:15:39;;;;;;;15.43;9.37;;;6.10;99.90;;;;;;5067005;28;20561;-81
2021/01/01 13:18:09;;;;;;;12.93;7.77;;;6.10;99.90;;;;;;5066594;28;20300;-86
2021/01/01 13:20:36;;;;;;;12.20;6.47;;;6.20;99.90;;;;;;5067275;28;20232;-83
2021/01/01 13:23:02;;;;;;;9.23;5.73;;;6.20;99.90;;;;;;5065238;28;20911;-82
2021/01/01 13:25:28;;;;;;;9.00;4.50;;;6.20;99.90;;;;;;5065857;28;20205;-83
2021/01/01 13:27:54;;;;;;;4.20;2.10;;;6.20;99.90;;;;;;5064632;28;20216;-85
2021/01/01 13:30:22;;;;;;;4.23;2.07;;;6.20;99.90;;;;;;5065886;28;20205;-82
2021/01/01 13:32:48;;;;;;;4.73;1.67;;;6.30;99.90;;;;;;5065947;28;20201;-88
2021/01/01 13:35:14;;;;;;;6.40;1.57;;;6.30;99.90;;;;;;5067369;28;20197;-81
2021/01/01 13:37:41;;;;;;;3.63;1.40;;;6.30;99.90;;;;;;5068160;28;20702;-88
2021/01/01 13:40:08;;;;;;;2.13;1.00;;;6.30;99.90;;;;;;5068631;28;20185;-87
2021/01/01 13:42:35;;;;;;;2.70;0.90;;;6.20;99.90;;;;;;5069084;28;20209;-85
2021/01/01 13:45:01;;;;;;;3.03;1.00;;;6.20;99.90;;;;;;5068647;28;20209;-83
2021/01/01 13:47:29;;;;;;;2.53;1.17;;;6.20;99.90;;;;;;5068564;28;20209;-82
2021/01/01 13:49:55;;;;;;;1.40;0.90;;;6.20;99.90;;;;;;5068287;28;20205;-88
2021/01/01 13:52:21;;;;;;;3.37;1.10;;;6.20;99.90;;;;;;5068442;28;20339;-80